M/T Vemaoil Xi — 9HWD7 — position and weather

sailwx.info

Track history (hours):
 
Tides and Currents Weather Stations Pressure Air Temp Water Temp Dewpoint Dewpoint Depression Visibility Wind Speed Wind Dir Waves Ship Positions

M/T Vemaoil Xi

Last reported at 2017-Nov-23 05:44 UTC. Time now 2017-Nov-24 12:58 UTC.
Position N 35°49' E 014°33'.

Length 105 m; draft 4.8 m.

Type: Tanker. MMSI: 215631000.

Date/timePositionNaut miles runAvg speedWind from/ knotsBaromVisibWave heightAir tempDewpointWater temp
2017-Nov-23 05:44N 35°49' E 014°33'3 0.3
2017-Nov-22 21:54N 35°49' E 014°36'  
2017-Nov-19 23:21N 35°49' E 014°36'3 7.1
2017-Nov-19 22:59N 35°49' E 014°39'3 7.2
2017-Nov-19 22:31N 35°50' E 014°43'4 7.5
2017-Nov-19 22:00N 35°52' E 014°47'1 0.1
2017-Nov-19 17:03N 35°52' E 014°47'0 5.2
2017-Nov-19 16:59N 35°52' E 014°47'3 6.0
2017-Nov-19 16:30N 35°50' E 014°45'4 7.2
2017-Nov-19 16:00N 35°49' E 014°40'4 1.2
2017-Nov-19 12:42N 35°50' E 014°36'0 0.1
2017-Nov-19 10:40N 35°50' E 014°36'0 0.0
2017-Nov-19 09:13N 35°50' E 014°36'0 0.0
2017-Nov-19 08:52N 35°50' E 014°36'0 0.0
2017-Nov-19 05:56N 35°50' E 014°36'2 3.5
2017-Nov-19 05:29N 35°49' E 014°37'3 6.7
2017-Nov-19 05:00N 35°50' E 014°42'6 0.8
2017-Nov-18 20:57N 35°53' E 014°48'4 5.7
2017-Nov-18 20:18N 35°50' E 014°45'2 6.5
2017-Nov-18 19:59N 35°49' E 014°43'3 7.0
2017-Nov-18 19:30N 35°49' E 014°39'2 0.7
2017-Nov-18 16:44N 35°49' E 014°36'0 0.1
2017-Nov-18 16:23N 35°49' E 014°36'0 0.0
2017-Nov-18 15:50N 35°49' E 014°36'0 0.0
2017-Nov-18 14:32N 35°49' E 014°36'0 0.2
2017-Nov-18 14:20N 35°49' E 014°36'3 0.1
2017-Nov-17 12:34N 35°49' E 014°33'0 2.7
2017-Nov-17 12:30N 35°49' E 014°33'1 0.1
2017-Nov-17 00:54N 35°49' E 014°35'2 0.2
2017-Nov-16 17:51N 35°50' E 014°36'0 1.4
2017-Nov-16 17:30N 35°51' E 014°36'0 0.0
2017-Nov-16 09:17N 35°51' E 014°36'0 0.1
2017-Nov-16 08:57N 35°51' E 014°36'1 1.3
2017-Nov-16 08:00N 35°49' E 014°35'3 6.9
2017-Nov-16 07:30N 35°53' E 014°36'3 7.0
2017-Nov-16 07:00N 35°56' E 014°34'3 6.8
2017-Nov-16 06:30N 35°58' E 014°30'4 6.9
2017-Nov-16 06:00N 35°59' E 014°26'3 5.8
2017-Nov-16 05:30N 36°01' E 014°23'0 0.1
2017-Nov-16 05:00N 36°01' E 014°23'0 0.0
2017-Nov-16 04:30N 36°01' E 014°23'0 0.0
2017-Nov-16 03:59N 36°01' E 014°23'0 0.0
2017-Nov-16 03:31N 36°01' E 014°23'0 0.0
2017-Nov-16 03:00N 36°01' E 014°23'0 0.0
2017-Nov-16 02:30N 36°01' E 014°23'0 0.0
2017-Nov-16 02:00N 36°01' E 014°23'0 0.0
2017-Nov-16 01:30N 36°01' E 014°23'0 0.0
2017-Nov-16 01:00N 36°01' E 014°23'0 0.0
2017-Nov-16 00:30N 36°01' E 014°23'0 0.0
2017-Nov-16 00:00N 36°01' E 014°23'0 0.0
2017-Nov-15 23:30N 36°01' E 014°23'0 0.0
2017-Nov-15 23:00N 36°01' E 014°23'0 0.0
2017-Nov-15 22:30N 36°01' E 014°23'0 0.1
2017-Nov-15 22:00N 36°01' E 014°23'0 0.1
2017-Nov-15 21:30N 36°01' E 014°23'0 0.0
2017-Nov-15 20:59N 36°01' E 014°23'0 0.0
2017-Nov-15 20:30N 36°01' E 014°23'0 0.1
2017-Nov-15 20:00N 36°01' E 014°23'0 0.0
2017-Nov-15 19:30N 36°01' E 014°23'0 0.0
2017-Nov-15 19:00N 36°01' E 014°23'0 0.0
2017-Nov-15 18:30N 36°01' E 014°23'0 0.0
2017-Nov-15 18:00N 36°01' E 014°23'0 0.0
2017-Nov-15 17:30N 36°01' E 014°23'0 0.0
2017-Nov-15 17:00N 36°01' E 014°23'0 0.1
2017-Nov-15 16:30N 36°01' E 014°23'0 1.0
2017-Nov-15 16:00N 36°01' E 014°24'0 0.0
2017-Nov-15 15:30N 36°01' E 014°24'0 0.0
2017-Nov-15 15:00N 36°01' E 014°24'0 0.0
2017-Nov-15 14:30N 36°01' E 014°24'0 0.0
2017-Nov-15 14:00N 36°01' E 014°24'0 0.1
2017-Nov-15 13:30N 36°01' E 014°24'0 0.0
2017-Nov-15 13:00N 36°01' E 014°24'0 0.0
2017-Nov-15 12:30N 36°01' E 014°24'0 0.0
2017-Nov-15 12:00N 36°01' E 014°24'0 0.0
2017-Nov-15 11:30N 36°01' E 014°24'0 0.0
2017-Nov-15 11:00N 36°01' E 014°24'2 4.4
2017-Nov-15 10:30N 36°01' E 014°26'4 7.0
2017-Nov-15 10:00N 35°59' E 014°30'4 7.5
2017-Nov-15 09:30N 35°56' E 014°33'4 7.5
2017-Nov-15 09:00N 35°53' E 014°35'4 2.9
2017-Nov-15 07:40N 35°49' E 014°35'0 0.0
2017-Nov-15 06:38N 35°49' E 014°35'0 0.1
2017-Nov-15 06:30N 35°49' E 014°35'0 0.0
2017-Nov-15 03:03N 35°49' E 014°35'0 0.2
2017-Nov-15 03:00N 35°49' E 014°35'0 0.0
2017-Nov-15 00:17N 35°49' E 014°35'0 0.1
2017-Nov-14 17:41N 35°49' E 014°35'0 0.1
2017-Nov-14 13:55N 35°49' E 014°36'1 2.1
2017-Nov-14 13:30N 35°50' E 014°36'0 0.0
2017-Nov-14 13:00N 35°50' E 014°36'0 0.0
2017-Nov-14 12:30N 35°50' E 014°36'0 0.0
2017-Nov-14 12:00N 35°50' E 014°36'0 0.1
2017-Nov-14 11:30N 35°50' E 014°36'0 0.0
2017-Nov-14 10:37N 35°50' E 014°36'0 0.1
2017-Nov-14 10:31N 35°50' E 014°36'0 0.0
2017-Nov-14 10:00N 35°50' E 014°36'0 0.1
2017-Nov-14 09:30N 35°50' E 014°36'0 0.1
2017-Nov-14 09:00N 35°50' E 014°36'0 0.0
2017-Nov-14 08:30N 35°50' E 014°36'0 0.0
2017-Nov-14 07:59N 35°50' E 014°36'1 0.4
2017-Nov-14 06:21N 35°50' E 014°36'0 0.0
2017-Nov-13 22:03N 35°50' E 014°36'0 0.9
2017-Nov-13 21:59N 35°51' E 014°36'  
Track history (hours):
 
Tides and Currents Weather Stations Pressure Air Temp Water Temp Dewpoint Dewpoint Depression Visibility Wind Speed Wind Dir Waves Ship Positions

M/T Vemaoil Xi

Last reported at 2017-Nov-23 05:44 UTC. Time now 2017-Nov-24 12:58 UTC.
Position N 35°49' E 014°33'.

Length 105 m; draft 4.8 m.

Type: Tanker. MMSI: 215631000.

Date/timePositionNaut miles runAvg speedWind from/ knotsBaromVisibWave heightAir tempDewpointWater temp
2017-Nov-23 05:44N 35°49' E 014°33'3 0.3
2017-Nov-22 21:54N 35°49' E 014°36'  
2017-Nov-19 23:21N 35°49' E 014°36'3 7.1
2017-Nov-19 22:59N 35°49' E 014°39'3 7.2
2017-Nov-19 22:31N 35°50' E 014°43'4 7.5
2017-Nov-19 22:00N 35°52' E 014°47'1 0.1
2017-Nov-19 17:03N 35°52' E 014°47'0 5.2
2017-Nov-19 16:59N 35°52' E 014°47'3 6.0
2017-Nov-19 16:30N 35°50' E 014°45'4 7.2
2017-Nov-19 16:00N 35°49' E 014°40'4 1.2
2017-Nov-19 12:42N 35°50' E 014°36'0 0.1
2017-Nov-19 10:40N 35°50' E 014°36'0 0.0
2017-Nov-19 09:13N 35°50' E 014°36'0 0.0
2017-Nov-19 08:52N 35°50' E 014°36'0 0.0
2017-Nov-19 05:56N 35°50' E 014°36'2 3.5
2017-Nov-19 05:29N 35°49' E 014°37'3 6.7
2017-Nov-19 05:00N 35°50' E 014°42'6 0.8
2017-Nov-18 20:57N 35°53' E 014°48'4 5.7
2017-Nov-18 20:18N 35°50' E 014°45'2 6.5
2017-Nov-18 19:59N 35°49' E 014°43'3 7.0
2017-Nov-18 19:30N 35°49' E 014°39'2 0.7
2017-Nov-18 16:44N 35°49' E 014°36'0 0.1
2017-Nov-18 16:23N 35°49' E 014°36'0 0.0
2017-Nov-18 15:50N 35°49' E 014°36'0 0.0
2017-Nov-18 14:32N 35°49' E 014°36'0 0.2
2017-Nov-18 14:20N 35°49' E 014°36'3 0.1
2017-Nov-17 12:34N 35°49' E 014°33'0 2.7
2017-Nov-17 12:30N 35°49' E 014°33'1 0.1
2017-Nov-17 00:54N 35°49' E 014°35'2 0.2
2017-Nov-16 17:51N 35°50' E 014°36'0 1.4
2017-Nov-16 17:30N 35°51' E 014°36'0 0.0
2017-Nov-16 09:17N 35°51' E 014°36'0 0.1
2017-Nov-16 08:57N 35°51' E 014°36'1 1.3
2017-Nov-16 08:00N 35°49' E 014°35'3 6.9
2017-Nov-16 07:30N 35°53' E 014°36'3 7.0
2017-Nov-16 07:00N 35°56' E 014°34'3 6.8
2017-Nov-16 06:30N 35°58' E 014°30'4 6.9
2017-Nov-16 06:00N 35°59' E 014°26'3 5.8
2017-Nov-16 05:30N 36°01' E 014°23'0 0.1
2017-Nov-16 05:00N 36°01' E 014°23'0 0.0
2017-Nov-16 04:30N 36°01' E 014°23'0 0.0
2017-Nov-16 03:59N 36°01' E 014°23'0 0.0
2017-Nov-16 03:31N 36°01' E 014°23'0 0.0
2017-Nov-16 03:00N 36°01' E 014°23'0 0.0
2017-Nov-16 02:30N 36°01' E 014°23'0 0.0
2017-Nov-16 02:00N 36°01' E 014°23'0 0.0
2017-Nov-16 01:30N 36°01' E 014°23'0 0.0
2017-Nov-16 01:00N 36°01' E 014°23'0 0.0
2017-Nov-16 00:30N 36°01' E 014°23'0 0.0
2017-Nov-16 00:00N 36°01' E 014°23'0 0.0
2017-Nov-15 23:30N 36°01' E 014°23'0 0.0
2017-Nov-15 23:00N 36°01' E 014°23'0 0.0
2017-Nov-15 22:30N 36°01' E 014°23'0 0.1
2017-Nov-15 22:00N 36°01' E 014°23'0 0.1
2017-Nov-15 21:30N 36°01' E 014°23'0 0.0
2017-Nov-15 20:59N 36°01' E 014°23'0 0.0
2017-Nov-15 20:30N 36°01' E 014°23'0 0.1
2017-Nov-15 20:00N 36°01' E 014°23'0 0.0
2017-Nov-15 19:30N 36°01' E 014°23'0 0.0
2017-Nov-15 19:00N 36°01' E 014°23'0 0.0
2017-Nov-15 18:30N 36°01' E 014°23'0 0.0
2017-Nov-15 18:00N 36°01' E 014°23'0 0.0
2017-Nov-15 17:30N 36°01' E 014°23'0 0.0
2017-Nov-15 17:00N 36°01' E 014°23'0 0.1
2017-Nov-15 16:30N 36°01' E 014°23'0 1.0
2017-Nov-15 16:00N 36°01' E 014°24'0 0.0
2017-Nov-15 15:30N 36°01' E 014°24'0 0.0
2017-Nov-15 15:00N 36°01' E 014°24'0 0.0
2017-Nov-15 14:30N 36°01' E 014°24'0 0.0
2017-Nov-15 14:00N 36°01' E 014°24'0 0.1
2017-Nov-15 13:30N 36°01' E 014°24'0 0.0
2017-Nov-15 13:00N 36°01' E 014°24'0 0.0
2017-Nov-15 12:30N 36°01' E 014°24'0 0.0
2017-Nov-15 12:00N 36°01' E 014°24'0 0.0
2017-Nov-15 11:30N 36°01' E 014°24'0 0.0
2017-Nov-15 11:00N 36°01' E 014°24'2 4.4
2017-Nov-15 10:30N 36°01' E 014°26'4 7.0
2017-Nov-15 10:00N 35°59' E 014°30'4 7.5
2017-Nov-15 09:30N 35°56' E 014°33'4 7.5
2017-Nov-15 09:00N 35°53' E 014°35'4 2.9
2017-Nov-15 07:40N 35°49' E 014°35'0 0.0
2017-Nov-15 06:38N 35°49' E 014°35'0 0.1
2017-Nov-15 06:30N 35°49' E 014°35'0 0.0
2017-Nov-15 03:03N 35°49' E 014°35'0 0.2
2017-Nov-15 03:00N 35°49' E 014°35'0 0.0
2017-Nov-15 00:17N 35°49' E 014°35'0 0.1
2017-Nov-14 17:41N 35°49' E 014°35'0 0.1
2017-Nov-14 13:55N 35°49' E 014°36'1 2.1
2017-Nov-14 13:30N 35°50' E 014°36'0 0.0
2017-Nov-14 13:00N 35°50' E 014°36'0 0.0
2017-Nov-14 12:30N 35°50' E 014°36'0 0.0
2017-Nov-14 12:00N 35°50' E 014°36'0 0.1
2017-Nov-14 11:30N 35°50' E 014°36'0 0.0
2017-Nov-14 10:37N 35°50' E 014°36'0 0.1
2017-Nov-14 10:31N 35°50' E 014°36'0 0.0
2017-Nov-14 10:00N 35°50' E 014°36'0 0.1
2017-Nov-14 09:30N 35°50' E 014°36'0 0.1
2017-Nov-14 09:00N 35°50' E 014°36'0 0.0
2017-Nov-14 08:30N 35°50' E 014°36'0 0.0
2017-Nov-14 07:59N 35°50' E 014°36'1 0.4
2017-Nov-14 06:21N 35°50' E 014°36'0 0.0
2017-Nov-13 22:03N 35°50' E 014°36'0 0.9
2017-Nov-13 21:59N 35°51' E 014°36'  

Dump ship's entire track history